createdAt,value
2023-11-12T00:01:59.598Z,99896.19
2023-11-12T00:04:27.817Z,99901.66
2023-11-12T00:06:55.998Z,99893.25
2023-11-12T00:09:25.411Z,99897.84
2023-11-12T00:11:54.951Z,99908.56
2023-11-12T00:14:23.205Z,99894.34
2023-11-12T00:16:51.457Z,99907.03
2023-11-12T00:19:19.780Z,99904.81
2023-11-12T00:21:48.344Z,99903.94
2023-11-12T00:24:18.826Z,99911.78
2023-11-12T00:26:47.149Z,99920.72
2023-11-12T00:29:17.340Z,99922.50
2023-11-12T00:31:45.645Z,99923.34
2023-11-12T00:34:14.124Z,99913.88
2023-11-12T00:36:43.948Z,99909.91
2023-11-12T00:39:12.695Z,99913.84
2023-11-12T00:41:41.715Z,99924.19
2023-11-12T00:44:12.167Z,99909.91
2023-11-12T00:46:43.820Z,99918.94
2023-11-12T00:49:12.222Z,99918.13
2023-11-12T00:51:40.921Z,99924.00
2023-11-12T00:54:09.155Z,99911.78
2023-11-12T00:56:37.463Z,99924.63
2023-11-12T00:59:06.736Z,99919.97
2023-11-12T01:01:35.601Z,99920.03
2023-11-12T01:04:05.734Z,99919.97
2023-11-12T01:06:34.764Z,99914.97
2023-11-12T01:09:03.039Z,99923.16
2023-11-12T01:11:31.263Z,99916.50
2023-11-12T01:13:59.486Z,99918.38
2023-11-12T01:16:30.528Z,99909.81
2023-11-12T01:18:59.975Z,99909.34
2023-11-12T01:21:29.710Z,99917.81
2023-11-12T01:23:58.020Z,99922.84
2023-11-12T01:26:26.236Z,99923.38
2023-11-12T01:28:54.944Z,99920.69
2023-11-12T01:31:24.499Z,99930.88
2023-11-12T01:33:53.075Z,99925.78
2023-11-12T01:36:21.960Z,99929.06
2023-11-12T01:38:51.528Z,99925.53
2023-11-12T01:41:20.053Z,99926.56
2023-11-12T01:43:48.292Z,99929.09
2023-11-12T01:46:16.713Z,99923.75
2023-11-12T01:48:45.246Z,99921.94
2023-11-12T01:51:14.639Z,99923.72
2023-11-12T01:53:43.087Z,99919.75
2023-11-12T01:56:14.931Z,99922.19
2023-11-12T01:58:44.411Z,99920.03
2023-11-12T02:01:13.603Z,99914.19
2023-11-12T02:03:44.084Z,99917.63
2023-11-12T02:06:14.080Z,99913.13
2023-11-12T02:08:42.501Z,99924.16
2023-11-12T02:11:13.362Z,99912.97
2023-11-12T02:13:44.076Z,99912.41
2023-11-12T02:16:12.603Z,99911.09
2023-11-12T02:18:46.172Z,99907.06
2023-11-12T02:21:14.471Z,99902.44
2023-11-12T02:23:44.020Z,99905.75
2023-11-12T02:26:13.109Z,99909.31
2023-11-12T02:28:41.304Z,99912.75
2023-11-12T02:31:10.112Z,99904.63
2023-11-12T02:33:39.943Z,99908.81
2023-11-12T02:36:09.913Z,99910.88
2023-11-12T02:38:38.159Z,99912.25
2023-11-12T02:41:11.625Z,99919.69
2023-11-12T02:43:40.099Z,99908.91
2023-11-12T02:46:08.484Z,99911.56
2023-11-12T02:48:52.200Z,99913.47
2023-11-12T02:51:21.280Z,99909.56
2023-11-12T02:53:49.495Z,99911.81
2023-11-12T02:56:19.052Z,99915.84
2023-11-12T02:58:47.264Z,99912.34
2023-11-12T03:01:15.475Z,99908.94
2023-11-12T03:03:43.976Z,99919.28
2023-11-12T03:06:12.576Z,99926.41
2023-11-12T03:08:42.615Z,99924.19
2023-11-12T03:11:11.444Z,99917.53
2023-11-12T03:13:40.980Z,99914.44
2023-11-12T03:16:09.188Z,99920.09
2023-11-12T03:18:37.573Z,99920.38
2023-11-12T03:21:06.692Z,99915.75
2023-11-12T03:23:36.356Z,99923.53
2023-11-12T03:26:04.763Z,99918.97
2023-11-12T03:28:32.950Z,99923.38
2023-11-12T03:31:02.476Z,99922.63
2023-11-12T03:33:30.682Z,99912.41
2023-11-12T03:35:59.011Z,99925.22
2023-11-12T03:38:27.435Z,99924.13
2023-11-12T03:40:56.543Z,99919.16
2023-11-12T03:43:24.749Z,99927.59
2023-11-12T03:45:53.078Z,99907.19
2023-11-12T03:48:22.763Z,99918.03
2023-11-12T03:50:51.291Z,99922.81
2023-11-12T03:53:19.684Z,99923.66
2023-11-12T03:55:47.873Z,99907.75
2023-11-12T03:58:16.121Z,99916.25
2023-11-12T04:00:44.449Z,99921.25
2023-11-12T04:03:12.910Z,99915.13
2023-11-12T04:05:42.992Z,99916.72
2023-11-12T04:08:11.228Z,99918.97
2023-11-12T04:10:39.411Z,99927.25
2023-11-12T04:13:07.720Z,99921.13
2023-11-12T04:15:36.090Z,99926.25
2023-11-12T04:18:04.546Z,99925.53
2023-11-12T04:20:33.603Z,99926.44
2023-11-12T04:23:03.160Z,99930.00
2023-11-12T04:25:31.379Z,99937.56
2023-11-12T04:27:59.625Z,99933.59
2023-11-12T04:30:27.969Z,99937.31
2023-11-12T04:32:56.221Z,99933.06
2023-11-12T04:35:24.557Z,99934.69
2023-11-12T04:37:53.068Z,99940.78
2023-11-12T04:40:23.537Z,99943.06
2023-11-12T04:42:52.000Z,99940.88
2023-11-12T04:45:21.274Z,99935.47
2023-11-12T04:47:49.867Z,99938.47
2023-11-12T04:50:18.882Z,99941.66
2023-11-12T04:52:48.171Z,99935.81
2023-11-12T04:55:16.646Z,99938.69
2023-11-12T04:57:46.320Z,99935.13
2023-11-12T05:00:15.273Z,99935.63
2023-11-12T05:02:46.074Z,99948.47
2023-11-12T05:05:14.720Z,99945.47
2023-11-12T05:07:43.019Z,99947.34
2023-11-12T05:10:12.607Z,99952.69
2023-11-12T05:12:40.930Z,99953.47
2023-11-12T05:15:11.782Z,99954.50
2023-11-12T05:17:40.173Z,99961.09
2023-11-12T05:20:09.312Z,99953.47
2023-11-12T05:22:38.282Z,99949.81
2023-11-12T05:25:07.830Z,99949.56
2023-11-12T05:27:36.300Z,99957.47
2023-11-12T05:30:05.080Z,99958.03
2023-11-12T05:32:34.948Z,99956.69
2023-11-12T05:35:03.322Z,99957.66
2023-11-12T05:37:31.554Z,99961.28
2023-11-12T05:39:59.828Z,99958.03
2023-11-12T05:42:28.122Z,99964.34
2023-11-12T05:44:56.451Z,99964.34
2023-11-12T05:47:25.022Z,99962.41
2023-11-12T05:49:54.860Z,99964.53
2023-11-12T05:52:23.913Z,99959.06
2023-11-12T05:54:52.169Z,99954.56
2023-11-12T05:57:21.375Z,99962.50
2023-11-12T05:59:49.597Z,99961.66
2023-11-12T06:02:17.829Z,99968.72
2023-11-12T06:04:46.015Z,99972.38
2023-11-12T06:07:15.622Z,99967.19
2023-11-12T06:09:45.488Z,99973.38
2023-11-12T06:12:13.713Z,99974.91
2023-11-12T06:14:42.024Z,99974.81
2023-11-12T06:17:10.312Z,99980.34
2023-11-12T06:19:38.505Z,99990.13
2023-11-12T06:22:06.854Z,99998.84
2023-11-12T06:24:36.459Z,100005.50
2023-11-12T06:27:04.975Z,100008.75
2023-11-12T06:29:33.204Z,100013.00
2023-11-12T06:32:01.572Z,100009.00
2023-11-12T06:34:29.883Z,100007.22
2023-11-12T06:36:59.723Z,100009.09
2023-11-12T06:39:27.955Z,100009.59
2023-11-12T06:41:57.560Z,100016.16
2023-11-12T06:44:25.857Z,100004.66
2023-11-12T06:46:54.104Z,100001.75
2023-11-12T06:49:22.360Z,100011.00
2023-11-12T06:51:50.884Z,100015.38
2023-11-12T06:54:19.126Z,100013.50
2023-11-12T06:56:47.334Z,100030.50
2023-11-12T06:59:17.413Z,100028.13
2023-11-12T07:01:46.800Z,100032.03
2023-11-12T07:04:15.686Z,100034.41
2023-11-12T07:06:57.371Z,100023.19
2023-11-12T07:09:32.497Z,100039.09
2023-11-12T07:12:01.111Z,100043.09
2023-11-12T07:14:30.667Z,100032.34
2023-11-12T07:16:58.893Z,100036.13
2023-11-12T07:19:27.517Z,100037.81
2023-11-12T07:21:55.846Z,100042.56
2023-11-12T07:24:24.107Z,100049.69
2023-11-12T07:26:52.406Z,100047.00
2023-11-12T07:29:20.628Z,100042.41
2023-11-12T07:31:50.190Z,100030.31
2023-11-12T07:34:18.489Z,100040.19
2023-11-12T07:36:46.771Z,100038.66
2023-11-12T07:39:15.076Z,100047.00
2023-11-12T07:41:43.698Z,100040.50
2023-11-12T07:44:11.936Z,100045.66
2023-11-12T07:46:42.250Z,100042.38
2023-11-12T07:49:13.431Z,100039.16
2023-11-12T07:51:41.800Z,100049.81
2023-11-12T07:54:10.271Z,100040.50
2023-11-12T07:56:42.168Z,100044.66
2023-11-12T07:59:11.159Z,100051.16
2023-11-12T08:01:39.800Z,100044.75
2023-11-12T08:04:09.518Z,100051.00
2023-11-12T08:06:39.216Z,100046.00
2023-11-12T08:09:07.843Z,100046.50
2023-11-12T08:11:40.685Z,100064.59
2023-11-12T08:14:10.110Z,100055.63
2023-11-12T08:16:38.757Z,100058.69
2023-11-12T08:19:07.286Z,100065.84
2023-11-12T08:21:35.555Z,100060.97
2023-11-12T08:24:06.712Z,100054.75
2023-11-12T08:26:39.803Z,100047.53
2023-11-12T08:29:09.067Z,100051.09
2023-11-12T08:31:37.956Z,100054.34
2023-11-12T08:34:06.950Z,100047.00
2023-11-12T08:36:36.152Z,100047.75
2023-11-12T08:39:06.209Z,100046.03
2023-11-12T08:41:34.408Z,100050.16
2023-11-12T08:44:02.640Z,100052.28
2023-11-12T08:46:30.880Z,100066.13
2023-11-12T08:48:59.141Z,100055.56
2023-11-12T08:51:27.433Z,100057.50
2023-11-12T08:53:56.200Z,100053.44
2023-11-12T08:56:26.974Z,100054.09
2023-11-12T08:58:55.204Z,100056.22
2023-11-12T09:01:23.400Z,100060.38
2023-11-12T09:03:51.665Z,100058.47
2023-11-12T09:06:20.217Z,100059.22
2023-11-12T09:08:48.743Z,100064.50
2023-11-12T09:11:16.951Z,100065.28
2023-11-12T09:13:46.616Z,100069.31
2023-11-12T09:16:15.101Z,100066.97
2023-11-12T09:18:43.401Z,100065.19
2023-11-12T09:21:11.652Z,100070.16
2023-11-12T09:23:40.422Z,100079.34
2023-11-12T09:26:09.238Z,100072.81
2023-11-12T09:28:39.295Z,100063.28
2023-11-12T09:31:09.177Z,100080.34
2023-11-12T09:33:37.494Z,100070.69
2023-11-12T09:36:06.644Z,100062.91
2023-11-12T09:38:37.187Z,100065.72
2023-11-12T09:41:06.150Z,100071.84
2023-11-12T09:43:34.861Z,100063.63
2023-11-12T09:46:07.922Z,100068.44
2023-11-12T09:48:40.892Z,100071.09
2023-11-12T09:51:11.087Z,100078.44
2023-11-12T09:53:42.263Z,100077.50
2023-11-12T09:56:11.167Z,100075.41
2023-11-12T09:58:42.316Z,100071.03
2023-11-12T10:01:12.435Z,100063.81
2023-11-12T10:03:44.187Z,100067.00
2023-11-12T10:06:12.940Z,100063.81
2023-11-12T10:08:42.554Z,100064.34
2023-11-12T10:11:19.153Z,100061.25
2023-11-12T10:13:47.948Z,100066.94
2023-11-12T10:16:30.658Z,100080.44
2023-11-12T10:19:12.771Z,100086.59
2023-11-12T10:21:54.928Z,100081.44
2023-11-12T10:24:23.961Z,100077.66
2023-11-12T10:26:54.554Z,100092.03
2023-11-12T10:29:23.414Z,100083.94
2023-11-12T10:31:51.839Z,100073.28
2023-11-12T10:34:23.536Z,100076.84
2023-11-12T10:37:05.442Z,100070.53
2023-11-12T10:39:38.365Z,100071.78
2023-11-12T10:42:08.634Z,100074.41
2023-11-12T10:44:37.601Z,100071.63
2023-11-12T10:47:10.479Z,100073.84
2023-11-12T10:49:41.962Z,100085.31
2023-11-12T10:52:13.053Z,100079.56
2023-11-12T10:54:43.239Z,100084.38
2023-11-12T10:57:13.550Z,100083.88
2023-11-12T10:59:44.211Z,100090.06
2023-11-12T11:02:18.451Z,100087.91
2023-11-12T11:04:49.026Z,100089.00
2023-11-12T11:07:18.537Z,100095.38
2023-11-12T11:09:46.896Z,100098.22
2023-11-12T11:12:16.003Z,100099.84
2023-11-12T11:14:44.234Z,100102.09
2023-11-12T11:17:39.149Z,100102.41
2023-11-12T11:20:13.120Z,100096.38
2023-11-12T11:22:42.689Z,100111.06
2023-11-12T11:25:24.156Z,100107.34
2023-11-12T11:28:22.375Z,100091.16
2023-11-12T11:31:12.887Z,100091.03
2023-11-12T11:33:48.006Z,100092.66
2023-11-12T11:36:20.599Z,100088.41
2023-11-12T11:39:24.910Z,100092.69
2023-11-12T11:42:13.187Z,100088.66
2023-11-12T11:44:50.404Z,100094.59
2023-11-12T11:47:21.071Z,100099.06
2023-11-12T11:49:50.557Z,100093.97
2023-11-12T11:52:22.098Z,100111.53
2023-11-12T11:55:03.972Z,100115.81
2023-11-12T11:57:33.208Z,100110.75
2023-11-12T12:00:02.484Z,100122.00
2023-11-12T12:02:43.477Z,100132.09
2023-11-12T12:05:11.799Z,100130.28
2023-11-12T12:07:46.123Z,100132.72
2023-11-12T12:10:26.702Z,100137.88
2023-11-12T12:12:55.780Z,100143.16
2023-11-12T12:15:24.141Z,100144.13
2023-11-12T12:17:52.476Z,100147.38
2023-11-12T12:20:20.762Z,100146.81
2023-11-12T12:22:51.087Z,100154.00
2023-11-12T12:25:19.701Z,100144.56
2023-11-12T12:27:54.877Z,100148.59
2023-11-12T12:30:23.169Z,100140.91
2023-11-12T12:32:52.763Z,100144.63
2023-11-12T12:35:24.861Z,100136.44
2023-11-12T12:38:08.167Z,100135.88
2023-11-12T12:40:39.430Z,100140.03
2023-11-12T12:43:11.460Z,100127.16
2023-11-12T12:45:39.819Z,100130.75
2023-11-12T12:48:15.861Z,100133.66
2023-11-12T12:50:44.260Z,100123.38
2023-11-12T12:53:15.103Z,100126.56
2023-11-12T12:55:44.954Z,100129.00
2023-11-12T12:58:13.796Z,100129.91
2023-11-12T13:00:44.387Z,100135.41
2023-11-12T13:03:27.596Z,100123.25
2023-11-12T13:05:57.841Z,100127.78
2023-11-12T13:08:28.824Z,100127.09
2023-11-12T13:10:57.033Z,100123.47
2023-11-12T13:13:26.561Z,100124.47
2023-11-12T13:15:54.851Z,100136.25
2023-11-12T13:18:23.633Z,100131.63
2023-11-12T13:20:52.654Z,100131.72
2023-11-12T13:23:21.359Z,100136.63
2023-11-12T13:25:52.632Z,100131.91
2023-11-12T13:28:22.265Z,100131.91
2023-11-12T13:30:50.509Z,100131.44
2023-11-12T13:33:19.277Z,100130.59
2023-11-12T13:35:49.088Z,100134.19
2023-11-12T13:38:17.576Z,100138.22
2023-11-12T13:40:46.002Z,100127.94
2023-11-12T13:43:15.826Z,100125.13
2023-11-12T13:45:44.300Z,100133.25
2023-11-12T13:48:12.780Z,100125.50
2023-11-12T13:50:41.107Z,100131.53
2023-11-12T13:53:13.232Z,100134.28
2023-11-12T13:55:42.855Z,100138.03
2023-11-12T13:58:14.370Z,100138.63
2023-11-12T14:00:44.280Z,100133.63
2023-11-12T14:03:12.745Z,100141.72
2023-11-12T14:05:41.091Z,100132.19
2023-11-12T14:08:13.009Z,100135.50
2023-11-12T14:10:41.731Z,100139.19
2023-11-12T14:13:10.611Z,100143.16
2023-11-12T14:15:40.276Z,100133.25
2023-11-12T14:18:11.296Z,100142.69
2023-11-12T14:20:39.760Z,100140.41
2023-11-12T14:23:09.508Z,100134.53
2023-11-12T14:25:38.794Z,100141.63
2023-11-12T14:28:07.732Z,100142.31
2023-11-12T14:30:38.507Z,100143.81
2023-11-12T14:33:07.682Z,100153.84
2023-11-12T14:35:37.238Z,100145.66
2023-11-12T14:38:06.001Z,100159.03
2023-11-12T14:40:34.356Z,100159.09
2023-11-12T14:43:07.979Z,100158.72
2023-11-12T14:45:38.072Z,100157.94
2023-11-12T14:48:08.467Z,100154.66
2023-11-12T14:50:38.814Z,100158.72
2023-11-12T14:53:07.239Z,100166.75
2023-11-12T14:55:35.754Z,100161.34
2023-11-12T14:58:05.946Z,100157.50
2023-11-12T15:00:36.438Z,100159.66
2023-11-12T15:03:07.391Z,100160.59
2023-11-12T15:05:37.206Z,100158.91
2023-11-12T15:08:07.104Z,100160.09
2023-11-12T15:10:35.323Z,100155.84
2023-11-12T15:13:03.787Z,100152.31
2023-11-12T15:15:32.031Z,100162.22
2023-11-12T15:18:00.313Z,100164.88
2023-11-12T15:20:28.722Z,100164.28
2023-11-12T15:22:57.112Z,100164.28
2023-11-12T15:25:26.832Z,100163.31
2023-11-12T15:27:55.207Z,100161.41
2023-11-12T15:30:25.741Z,100171.59
2023-11-12T15:32:54.689Z,100174.63
2023-11-12T15:35:22.901Z,100170.41
2023-11-12T15:37:51.114Z,100184.53
2023-11-12T15:40:20.986Z,100183.78
2023-11-12T15:42:52.998Z,100186.22
2023-11-12T15:45:24.713Z,100191.50
2023-11-12T15:47:54.086Z,100192.28
2023-11-12T15:50:26.865Z,100192.13
2023-11-12T15:52:55.206Z,100199.66
2023-11-12T15:55:23.549Z,100189.38
2023-11-12T15:57:53.368Z,100185.72
2023-11-12T16:00:21.706Z,100195.38
2023-11-12T16:02:53.063Z,100198.41
2023-11-12T16:05:26.688Z,100210.00
2023-11-12T16:07:56.659Z,100202.34
2023-11-12T16:10:24.876Z,100201.72
2023-11-12T16:12:54.927Z,100204.66
2023-11-12T16:15:23.273Z,100210.94
2023-11-12T16:17:52.744Z,100215.28
2023-11-12T16:20:21.210Z,100212.28
2023-11-12T16:22:49.454Z,100212.72
2023-11-12T16:25:18.036Z,100212.97
2023-11-12T16:27:46.365Z,100220.72
2023-11-12T16:30:16.288Z,100219.25
2023-11-12T16:32:44.679Z,100221.06
2023-11-12T16:35:14.473Z,100221.81
2023-11-12T16:37:48.544Z,100226.66
2023-11-12T16:40:17.489Z,100225.31
2023-11-12T16:42:47.125Z,100228.06
2023-11-12T16:45:17.884Z,100233.69
2023-11-12T16:47:46.675Z,100235.81
2023-11-12T16:50:18.032Z,100234.13
2023-11-12T16:52:46.402Z,100243.78
2023-11-12T16:55:14.861Z,100238.44
2023-11-12T16:57:44.798Z,100245.75
2023-11-12T17:00:13.841Z,100244.75
2023-11-12T17:02:43.585Z,100242.63
2023-11-12T17:05:12.332Z,100249.50
2023-11-12T17:07:41.054Z,100254.09
2023-11-12T17:10:10.747Z,100252.34
2023-11-12T17:12:39.146Z,100254.97
2023-11-12T17:15:10.984Z,100258.72
2023-11-12T17:17:40.365Z,100262.19
2023-11-12T17:20:13.901Z,100258.38
2023-11-12T17:22:42.672Z,100259.28
2023-11-12T17:25:13.044Z,100258.97
2023-11-12T17:27:42.393Z,100253.69
2023-11-12T17:30:13.296Z,100262.28
2023-11-12T17:32:41.771Z,100259.22
2023-11-12T17:35:15.645Z,100262.78
2023-11-12T17:37:43.953Z,100259.22
2023-11-12T17:40:13.238Z,100263.81
2023-11-12T17:42:42.750Z,100261.09
2023-11-12T17:45:12.829Z,100261.25
2023-11-12T17:47:41.659Z,100258.19
2023-11-12T17:50:12.106Z,100262.44
2023-11-12T17:52:40.450Z,100260.31
2023-11-12T17:55:09.704Z,100263.63
2023-11-12T17:57:39.108Z,100266.88
2023-11-12T18:00:10.305Z,100269.25
2023-11-12T18:02:39.583Z,100267.47
2023-11-12T18:05:08.266Z,100271.72
2023-11-12T18:07:37.836Z,100271.66
2023-11-12T18:10:12.332Z,100266.88
2023-11-12T18:12:42.296Z,100267.66
2023-11-12T18:15:14.090Z,100273.72
2023-11-12T18:17:42.471Z,100277.53
2023-11-12T18:20:11.722Z,100267.47
2023-11-12T18:22:41.224Z,100265.53
2023-11-12T18:25:10.336Z,100260.84
2023-11-12T18:27:40.333Z,100265.84
2023-11-12T18:30:09.736Z,100260.91
2023-11-12T18:32:39.112Z,100258.00
2023-11-12T18:35:09.180Z,100280.31
2023-11-12T18:37:37.398Z,100275.41
2023-11-12T18:40:10.243Z,100277.81
2023-11-12T18:42:39.819Z,100279.31
2023-11-12T18:45:09.071Z,100281.50
2023-11-12T18:47:37.261Z,100276.09
2023-11-12T18:50:05.875Z,100272.75
2023-11-12T18:52:34.083Z,100274.38
2023-11-12T18:55:02.292Z,100285.19
2023-11-12T18:57:31.825Z,100288.72
2023-11-12T19:00:01.702Z,100306.81
2023-11-12T19:02:29.995Z,100319.47
2023-11-12T19:04:58.598Z,100328.75
2023-11-12T19:07:27.966Z,100312.94
2023-11-12T19:09:56.165Z,100279.03
2023-11-12T19:12:24.660Z,100292.50
2023-11-12T19:14:54.633Z,100291.47
2023-11-12T19:17:23.481Z,100300.69
2023-11-12T19:19:51.806Z,100301.06
2023-11-12T19:22:20.342Z,100299.22
2023-11-12T19:24:49.014Z,100287.28
2023-11-12T19:27:17.872Z,100283.41
2023-11-12T19:29:46.110Z,100284.03
2023-11-12T19:32:17.628Z,100286.28
2023-11-12T19:34:46.375Z,100277.47
2023-11-12T19:37:14.696Z,100286.16
2023-11-12T19:39:43.063Z,100280.88
2023-11-12T19:42:12.196Z,100286.16
2023-11-12T19:44:40.524Z,100286.09
2023-11-12T19:47:09.484Z,100286.47
2023-11-12T19:49:39.190Z,100282.69
2023-11-12T19:52:07.840Z,100286.47
2023-11-12T19:54:42.035Z,100282.16
2023-11-12T19:57:11.236Z,100284.50
2023-11-12T19:59:41.141Z,100287.59
2023-11-12T20:02:10.915Z,100281.78
2023-11-12T20:04:40.961Z,100291.78
2023-11-12T20:07:09.352Z,100284.94
2023-11-12T20:09:39.442Z,100285.22
2023-11-12T20:12:08.446Z,100285.69
2023-11-12T20:14:38.424Z,100283.34
2023-11-12T20:17:11.194Z,100283.22
2023-11-12T20:19:42.655Z,100295.91
2023-11-12T20:22:10.890Z,100311.28
2023-11-12T20:24:39.470Z,100311.66
2023-11-12T20:27:10.180Z,100314.78
2023-11-12T20:29:39.717Z,100322.41
2023-11-12T20:32:15.302Z,100319.47
2023-11-12T20:34:46.217Z,100321.78
2023-11-12T20:37:16.944Z,100323.75
2023-11-12T20:39:44.842Z,100326.53
2023-11-12T20:42:14.796Z,100322.91
2023-11-12T20:44:43.375Z,100332.31
2023-11-12T20:47:13.681Z,100326.06
2023-11-12T20:49:45.617Z,100325.44
2023-11-12T20:52:13.989Z,100332.69
2023-11-12T20:54:42.284Z,100330.19
2023-11-12T20:57:10.517Z,100325.34
2023-11-12T20:59:38.752Z,100333.75
2023-11-12T21:02:14.642Z,100333.75
2023-11-12T21:04:51.812Z,100336.75
2023-11-12T21:07:21.141Z,100342.22
2023-11-12T21:09:51.108Z,100328.47
2023-11-12T21:12:22.184Z,100342.69
2023-11-12T21:14:50.789Z,100344.63
2023-11-12T21:17:19.223Z,100349.34
2023-11-12T21:19:48.005Z,100350.34
2023-11-12T21:22:17.578Z,100355.72
2023-11-12T21:24:45.867Z,100350.47
2023-11-12T21:27:14.103Z,100350.69
2023-11-12T21:29:42.642Z,100347.47
2023-11-12T21:32:11.030Z,100345.63
2023-11-12T21:34:39.399Z,100342.94
2023-11-12T21:37:08.172Z,100347.41
2023-11-12T21:39:38.218Z,100351.81
2023-11-12T21:42:07.224Z,100347.28
2023-11-12T21:44:36.465Z,100350.84
2023-11-12T21:47:05.302Z,100358.53
2023-11-12T21:49:33.761Z,100356.94
2023-11-12T21:52:03.115Z,100351.44
2023-11-12T21:54:31.674Z,100363.59
2023-11-12T21:57:01.708Z,100360.22
2023-11-12T21:59:32.128Z,100354.19
2023-11-12T22:02:02.960Z,100353.25
2023-11-12T22:04:31.285Z,100353.41
2023-11-12T22:06:59.928Z,100350.59
2023-11-12T22:09:28.277Z,100356.81
2023-11-12T22:11:56.556Z,100355.09
2023-11-12T22:14:26.080Z,100355.09
2023-11-12T22:16:54.462Z,100364.19
2023-11-12T22:19:22.667Z,100350.84
2023-11-12T22:21:50.884Z,100361.22
2023-11-12T22:24:19.540Z,100365.09
2023-11-12T22:26:47.720Z,100361.75
2023-11-12T22:29:16.006Z,100365.41
2023-11-12T22:31:46.540Z,100367.84
2023-11-12T22:34:15.978Z,100367.72
2023-11-12T22:36:44.512Z,100363.38
2023-11-12T22:39:13.341Z,100371.41
2023-11-12T22:41:41.910Z,100371.13
2023-11-12T22:44:11.428Z,100374.50
2023-11-12T22:46:39.651Z,100385.75
2023-11-12T22:49:09.224Z,100379.56
2023-11-12T22:51:38.615Z,100377.47
2023-11-12T22:54:07.037Z,100375.63
2023-11-12T22:56:35.232Z,100380.28
2023-11-12T22:59:03.535Z,100377.69
2023-11-12T23:01:31.857Z,100387.44
2023-11-12T23:04:00.130Z,100386.38
2023-11-12T23:06:29.694Z,100387.97
2023-11-12T23:09:06.676Z,100392.69
2023-11-12T23:11:35.280Z,100391.44
2023-11-12T23:14:05.252Z,100398.38
2023-11-12T23:16:33.728Z,100399.38
2023-11-12T23:19:02.356Z,100393.28
2023-11-12T23:21:31.909Z,100391.59
2023-11-12T23:24:00.145Z,100396.38
2023-11-12T23:26:28.623Z,100396.09
2023-11-12T23:28:56.806Z,100391.59
2023-11-12T23:31:25.309Z,100397.09
2023-11-12T23:33:54.296Z,100397.53
2023-11-12T23:36:22.707Z,100399.38
2023-11-12T23:38:52.540Z,100401.03
2023-11-12T23:41:20.960Z,100400.84
2023-11-12T23:43:49.672Z,100412.09
2023-11-12T23:46:18.510Z,100402.09
2023-11-12T23:48:46.799Z,100404.31
2023-11-12T23:51:15.784Z,100403.81
2023-11-12T23:53:45.352Z,100397.88
2023-11-12T23:56:17.826Z,100399.31
2023-11-12T23:58:46.196Z,100408.13
